Time;durP1;ratioP1;P1;durP2;ratioP2;P2;SDS_P1;SDS_P2;PMS_P1;PMS_P2;Temp;Humidity;BMP_temperature;BMP_pressure;BME280_temperature;BME280_humidity;BME280_pressure;Samples;Min_cycle;Max_cycle;Signal;HPM_P1;HPM_P2
2021/08/17 00:02:02;;;;;;;13.03;5.87;;;20.50;99.90;;;20.86;56.13;101377.16;5002922;27;101820;-54
2021/08/17 00:04:28;;;;;;;9.67;5.07;;;20.50;99.90;;;20.84;56.40;101379.09;4979584;27;102472;-54
2021/08/17 00:06:54;;;;;;;10.97;5.93;;;20.50;99.90;;;20.83;55.98;101374.69;4988500;27;98903;-56
2021/08/17 00:09:20;;;;;;;9.57;5.80;;;20.50;99.90;;;20.79;55.33;101378.53;5007671;27;97925;-56
2021/08/17 00:11:46;;;;;;;12.50;6.13;;;20.40;99.90;;;20.77;56.35;101377.78;5004095;27;99410;-54
2021/08/17 00:14:18;;;;;;;12.67;6.63;;;20.30;99.90;;;20.73;56.65;101365.53;4998405;27;97733;-55
2021/08/17 00:16:44;;;;;;;11.53;6.33;;;20.30;99.90;;;20.76;56.88;101371.56;4929275;27;100122;-59
2021/08/17 00:19:10;;;;;;;14.90;7.17;;;20.40;99.90;;;20.75;56.35;101374.34;4955534;27;97292;-59
2021/08/17 00:21:37;;;;;;;12.60;5.87;;;20.30;99.90;;;20.76;56.88;101374.22;4983830;27;99701;-58
2021/08/17 00:24:04;;;;;;;13.57;6.97;;;20.30;99.90;;;20.76;56.84;101373.38;4968611;27;110756;-52
2021/08/17 00:26:30;;;;;;;14.73;6.50;;;20.40;99.90;;;20.74;56.61;101368.13;4996574;27;97760;-57
2021/08/17 00:28:56;;;;;;;12.67;6.47;;;20.40;99.90;;;20.77;56.50;101373.28;4991561;27;99729;-57
2021/08/17 00:31:21;;;;;;;11.73;7.50;;;20.40;99.90;;;20.78;56.26;101368.75;4997188;27;99830;-54
2021/08/17 00:33:47;;;;;;;14.93;7.80;;;20.40;99.90;;;20.77;56.13;101369.72;5008748;27;99539;-53
2021/08/17 00:36:13;;;;;;;15.20;8.53;;;20.30;99.90;;;20.70;56.68;101374.66;5015764;27;97140;-56
2021/08/17 00:38:40;;;;;;;15.00;8.50;;;20.20;99.90;;;20.63;56.39;101365.28;4989978;27;99387;-54
2021/08/17 00:41:08;;;;;;;16.07;8.57;;;20.10;99.90;;;20.64;57.31;101376.88;5014751;27;99558;-55
2021/08/17 00:43:35;;;;;;;18.87;9.73;;;20.10;99.90;;;20.60;57.16;101370.00;4992949;27;98044;-54
2021/08/17 00:46:04;;;;;;;18.60;10.07;;;20.10;99.90;;;20.55;56.92;101374.81;5008041;27;97334;-56
2021/08/17 00:48:32;;;;;;;18.17;9.67;;;20.00;99.90;;;20.48;57.30;101377.03;5011007;27;98622;-52
2021/08/17 00:50:58;;;;;;;16.53;9.97;;;19.90;99.90;;;20.46;55.82;101369.09;5007876;27;98651;-53
2021/08/17 00:53:24;;;;;;;20.03;11.70;;;20.00;99.90;;;20.46;57.18;101369.09;4995974;27;98667;-56
2021/08/17 00:55:50;;;;;;;18.80;11.17;;;19.90;99.90;;;20.38;56.52;101366.00;4989974;27;99096;-54
2021/08/17 00:58:19;;;;;;;18.97;11.30;;;19.80;99.90;;;20.39;57.38;101370.41;5015155;27;97203;-55
2021/08/17 01:00:47;;;;;;;19.23;12.10;;;19.80;99.90;;;20.35;57.44;101362.69;4991949;27;98472;-54
2021/08/17 01:03:14;;;;;;;18.73;11.00;;;19.80;99.90;;;20.31;56.70;101361.16;5014200;27;99619;-55
2021/08/17 01:05:40;;;;;;;19.40;12.20;;;19.70;99.90;;;20.15;56.92;101363.97;4986072;27;98271;-54
2021/08/17 01:08:08;;;;;;;23.87;12.87;;;19.50;99.90;;;20.21;58.20;101364.44;5014056;27;97232;-56
2021/08/17 01:10:37;;;;;;;23.83;13.13;;;19.60;99.90;;;20.24;57.83;101360.69;4995342;27;97900;-56
2021/08/17 01:13:03;;;;;;;22.47;13.40;;;19.70;99.90;;;20.25;56.69;101365.09;4998971;27;102160;-57
2021/08/17 01:15:29;;;;;;;21.90;14.83;;;19.70;99.90;;;20.23;57.67;101361.66;5014025;27;97536;-54
2021/08/17 01:17:55;;;;;;;24.00;14.33;;;19.70;99.90;;;20.17;55.37;101367.41;4990547;27;99482;-53
2021/08/17 01:20:21;;;;;;;26.37;16.07;;;19.70;99.90;;;20.16;56.94;101363.88;5013484;27;100556;-54
2021/08/17 01:22:49;;;;;;;28.10;15.00;;;19.60;99.90;;;20.14;58.29;101367.63;4982163;27;97148;-56
2021/08/17 01:25:15;;;;;;;22.53;14.40;;;19.60;99.90;;;20.16;58.53;101371.06;4996463;27;98842;-55
2021/08/17 01:27:44;;;;;;;24.63;14.67;;;19.60;99.90;;;20.17;58.13;101370.09;4989552;27;99073;-53
2021/08/17 01:30:12;;;;;;;26.30;15.40;;;19.60;99.90;;;20.16;58.12;101365.69;4992408;27;98708;-54
2021/08/17 01:32:39;;;;;;;26.57;15.83;;;19.60;99.90;;;20.18;58.39;101369.13;4989025;27;100772;-54
2021/08/17 01:35:06;;;;;;;27.33;16.37;;;19.60;99.90;;;20.15;58.34;101366.66;5013935;27;97245;-56
2021/08/17 01:37:32;;;;;;;30.63;17.43;;;19.60;99.90;;;20.01;54.97;101372.03;5010976;27;96965;-56
2021/08/17 01:40:05;;;;;;;29.90;17.10;;;19.50;99.90;;;20.06;57.48;101369.91;4989799;27;98809;-52
2021/08/17 01:42:31;;;;;;;29.87;18.17;;;19.50;99.90;;;19.96;57.98;101374.13;4994701;27;98059;-55
2021/08/17 01:44:58;;;;;;;31.23;18.60;;;19.30;99.90;;;19.97;58.86;101381.25;4990286;27;96823;-55
2021/08/17 01:47:29;;;;;;;30.83;18.00;;;19.30;99.90;;;20.01;58.36;101377.41;4995912;27;99978;-56
2021/08/17 01:49:56;;;;;;;29.10;18.23;;;19.40;99.90;;;20.00;58.21;101376.53;4989794;27;97875;-56
2021/08/17 01:52:21;;;;;;;33.13;20.67;;;19.40;99.90;;;19.90;58.90;101375.38;4996968;27;99954;-55
2021/08/17 01:54:47;;;;;;;31.00;19.50;;;19.30;99.90;;;20.00;59.30;101365.81;5008439;27;98280;-53
2021/08/17 01:57:13;;;;;;;30.90;19.50;;;19.40;99.90;;;20.03;59.01;101368.31;5015634;27;103965;-52
2021/08/17 01:59:39;;;;;;;33.97;20.33;;;19.40;99.90;;;19.87;55.39;101365.75;5025626;27;97682;-56
2021/08/17 02:02:08;;;;;;;34.20;20.50;;;19.30;99.90;;;19.84;58.35;101371.28;5018049;27;99915;-52
2021/08/17 02:04:37;;;;;;;33.90;21.17;;;19.10;99.90;;;19.71;56.24;101364.13;5013475;27;97513;-53
2021/08/17 02:07:04;;;;;;;33.83;20.47;;;19.00;99.90;;;19.80;58.31;101374.25;5011222;27;97363;-52
2021/08/17 02:09:30;;;;;;;41.27;22.33;;;19.10;99.90;;;19.78;59.38;101366.31;5016098;27;98860;-53
2021/08/17 02:11:56;;;;;;;37.27;22.30;;;19.10;99.90;;;19.73;57.37;101371.09;5007934;27;97195;-55
2021/08/17 02:14:22;;;;;;;35.70;21.57;;;19.10;99.90;;;19.78;59.79;101366.31;5033543;27;97546;-52
2021/08/17 02:16:48;;;;;;;35.87;21.73;;;19.10;99.90;;;19.74;58.72;101370.16;5006397;27;97221;-55
2021/08/17 02:19:16;;;;;;;36.53;21.93;;;19.10;99.90;;;19.87;58.99;101364.88;5012684;27;100663;-51
2021/08/17 02:21:43;;;;;;;38.30;22.60;;;19.20;99.90;;;19.89;57.67;101363.81;5006135;27;98372;-53
2021/08/17 02:24:09;;;;;;;38.03;21.93;;;19.30;99.90;;;19.92;59.11;101374.34;5030196;27;97090;-56
2021/08/17 02:26:35;;;;;;;36.93;22.17;;;19.30;99.90;;;19.98;58.39;101372.25;5011015;27;97012;-50
2021/08/17 02:29:01;;;;;;;39.30;24.30;;;19.40;99.90;;;19.92;55.51;101377.00;5029288;27;98226;-51
2021/08/17 02:31:26;;;;;;;35.77;21.10;;;19.40;99.90;;;19.96;59.42;101374.13;5030419;27;98131;-52
2021/08/17 02:33:52;;;;;;;36.80;23.20;;;19.40;99.90;;;20.01;59.48;101380.06;5011041;27;97790;-55
2021/08/17 02:36:18;;;;;;;37.47;23.30;;;19.40;99.90;;;20.02;58.70;101381.78;5012891;27;98851;-54
2021/08/17 02:38:44;;;;;;;39.63;24.37;;;19.50;99.90;;;19.99;58.97;101382.00;5008393;27;98438;-54
2021/08/17 02:41:10;;;;;;;39.90;24.40;;;19.40;99.90;;;19.86;59.05;101382.75;5016433;27;97453;-51
2021/08/17 02:43:35;;;;;;;35.83;21.70;;;19.20;99.90;;;19.98;59.02;101388.31;5032094;27;97537;-54
2021/08/17 02:46:01;;;;;;;39.73;23.53;;;19.40;99.90;;;20.00;58.54;101383.72;4985415;27;97611;-56
2021/08/17 02:48:27;;;;;;;42.03;23.17;;;19.40;99.90;;;19.96;57.24;101385.69;5025566;27;97968;-54
2021/08/17 02:50:53;;;;;;;41.50;24.57;;;19.40;99.90;;;19.91;55.74;101388.69;5005027;27;98608;-56
2021/08/17 02:53:19;;;;;;;41.53;24.87;;;19.40;99.90;;;19.81;57.53;101392.88;5028123;27;97182;-55
2021/08/17 02:55:45;;;;;;;38.50;22.77;;;19.20;99.90;;;19.87;59.12;101397.88;5025797;27;97384;-56
2021/08/17 02:58:12;;;;;;;40.17;23.63;;;19.30;99.90;;;19.85;59.22;101393.56;5011949;27;99750;-56
2021/08/17 03:00:40;;;;;;;35.00;22.27;;;19.30;99.90;;;19.95;58.95;101396.50;5011397;27;97287;-52
2021/08/17 03:03:07;;;;;;;35.83;22.03;;;19.50;99.90;;;19.94;56.79;101392.13;5012365;27;97362;-54
2021/08/17 03:05:33;;;;;;;39.87;23.60;;;19.50;99.90;;;19.86;58.75;101392.63;5029132;27;98324;-56
2021/08/17 03:08:02;;;;;;;41.33;24.33;;;19.30;99.90;;;19.77;56.95;101386.00;4993350;27;100496;-55
2021/08/17 03:10:30;;;;;;;40.67;24.83;;;19.20;99.90;;;19.84;58.35;101387.34;5015083;27;98868;-54
2021/08/17 03:12:56;;;;;;;38.57;23.50;;;19.30;99.90;;;19.69;57.40;101392.81;5008741;27;97598;-50
2021/08/17 03:15:23;;;;;;;38.30;22.50;;;19.10;99.90;;;19.71;59.77;101386.41;5029801;27;97342;-53
2021/08/17 03:17:50;;;;;;;41.47;23.20;;;19.10;99.90;;;19.73;58.81;101395.19;5022644;27;97376;-52
2021/08/17 03:20:17;;;;;;;36.93;22.63;;;19.10;99.90;;;19.71;57.80;101385.53;5030837;27;96973;-56
2021/08/17 03:22:44;;;;;;;39.77;22.90;;;19.20;99.90;;;19.63;59.44;101390.50;5005186;27;97274;-52
2021/08/17 03:25:13;;;;;;;37.60;23.00;;;19.00;99.90;;;19.71;58.56;101391.75;5013900;27;97174;-56
2021/08/17 03:27:41;;;;;;;40.47;22.83;;;19.10;99.90;;;19.64;57.82;101385.03;5010171;27;97161;-51
2021/08/17 03:30:11;;;;;;;40.57;22.47;;;19.10;99.90;;;19.80;59.55;101391.16;5013348;27;96955;-53
2021/08/17 03:32:36;;;;;;;35.30;23.37;;;19.30;99.90;;;19.83;58.10;101395.50;5016609;27;96653;-60
2021/08/17 03:35:03;;;;;;;35.50;22.67;;;19.30;99.90;;;19.86;58.97;101393.47;5025693;27;96985;-53
2021/08/17 03:37:29;;;;;;;39.07;22.27;;;19.30;99.90;;;19.77;59.13;101391.34;5019615;27;96883;-50
2021/08/17 03:39:55;;;;;;;38.47;23.33;;;19.20;99.90;;;19.72;59.33;101387.25;5000313;27;98056;-55
2021/08/17 03:42:21;;;;;;;39.87;23.07;;;19.10;99.90;;;19.54;56.99;101390.13;4997711;27;96889;-51
2021/08/17 03:44:47;;;;;;;37.73;23.33;;;18.90;99.90;;;19.56;59.01;101387.34;5026417;27;97484;-56
2021/08/17 03:47:12;;;;;;;36.30;22.30;;;18.90;99.90;;;19.45;58.99;101385.28;5024554;27;117383;-53
2021/08/17 03:49:38;;;;;;;37.40;23.57;;;18.70;99.90;;;19.35;57.95;101373.44;4983618;27;99084;-53
2021/08/17 03:52:04;;;;;;;36.83;23.27;;;18.70;99.90;;;19.44;60.18;101385.41;5023987;27;97527;-54
2021/08/17 03:54:30;;;;;;;37.53;22.70;;;18.70;99.90;;;19.50;59.57;101379.66;5033488;27;97497;-55
2021/08/17 03:56:56;;;;;;;38.00;22.93;;;18.90;99.90;;;19.40;57.88;101367.81;4999850;27;99129;-53
2021/08/17 03:59:22;;;;;;;36.07;22.37;;;18.80;99.90;;;19.39;60.17;101374.97;4993398;28;97099;-54
2021/08/17 04:01:48;;;;;;;38.67;23.27;;;18.70;99.90;;;19.44;59.84;101378.22;5023182;27;96726;-55
2021/08/17 04:04:14;;;;;;;32.77;21.93;;;18.80;99.90;;;19.23;56.80;101375.03;5022313;27;97398;-52
2021/08/17 04:06:40;;;;;;;36.70;22.07;;;18.60;99.90;;;19.15;58.75;101377.31;5007425;27;96876;-56
2021/08/17 04:09:06;;;;;;;38.27;24.03;;;18.50;99.90;;;19.00;58.48;101388.94;5026404;27;97686;-52
2021/08/17 04:11:31;;;;;;;34.73;21.67;;;18.30;99.90;;;19.18;61.79;101389.63;5006580;27;98355;-54
2021/08/17 04:13:57;;;;;;;31.07;21.23;;;18.50;99.90;;;19.25;59.45;101388.34;5002725;27;97147;-56
2021/08/17 04:16:23;;;;;;;31.60;20.10;;;18.60;99.90;;;19.45;61.40;101387.13;5010574;27;113261;-53
2021/08/17 04:18:49;;;;;;;28.07;18.87;;;18.80;99.90;;;19.54;60.50;101399.94;5004150;27;97927;-53
2021/08/17 04:21:14;;;;;;;31.80;20.43;;;18.90;99.90;;;19.71;60.38;101386.41;4995909;28;98107;-53
2021/08/17 04:23:40;;;;;;;31.73;20.37;;;19.10;99.90;;;19.86;60.14;101398.81;5004677;27;97542;-56
2021/08/17 04:26:06;;;;;;;32.07;19.97;;;19.40;99.90;;;19.99;59.43;101388.22;5009457;27;97691;-54
2021/08/17 04:28:32;;;;;;;31.60;19.77;;;19.50;99.90;;;20.11;58.92;101397.28;5006682;27;98236;-54
2021/08/17 04:30:58;;;;;;;30.40;19.33;;;19.60;99.90;;;20.19;58.76;101403.00;5008139;27;97180;-56
2021/08/17 04:33:24;;;;;;;30.90;18.60;;;19.70;99.90;;;20.25;58.72;101381.16;5010187;27;96899;-53
2021/08/17 04:35:50;;;;;;;33.07;21.73;;;19.80;99.90;;;20.35;58.57;101393.00;4998054;27;98437;-54
2021/08/17 04:38:16;;;;;;;33.13;21.10;;;19.90;99.90;;;20.41;58.31;101389.09;5007315;27;97809;-56
2021/08/17 04:40:42;;;;;;;27.10;19.30;;;19.90;99.90;;;20.44;58.02;101397.81;5000263;27;96778;-55
2021/08/17 04:43:07;;;;;;;29.17;19.97;;;19.90;99.90;;;20.50;57.99;101401.91;5027601;27;96820;-55
2021/08/17 04:45:33;;;;;;;35.23;19.43;;;20.00;99.90;;;20.55;57.35;101398.94;5019357;27;97320;-55
2021/08/17 04:48:00;;;;;;;32.73;19.43;;;20.10;99.90;;;20.55;57.77;101406.97;5021861;27;104207;-54
2021/08/17 04:50:26;;;;;;;29.73;19.53;;;20.10;99.90;;;20.62;57.70;101400.25;5009749;27;97477;-52
2021/08/17 04:52:52;;;;;;;28.63;18.97;;;20.20;99.90;;;20.63;57.69;101408.19;5001014;27;97599;-54
2021/08/17 04:55:18;;;;;;;31.60;17.23;;;20.20;99.90;;;20.69;57.64;101412.28;5025044;27;98633;-53
2021/08/17 04:57:58;;;;;;;30.17;18.40;;;20.30;99.90;;;20.71;57.36;101415.72;5005299;27;96924;-54
2021/08/17 05:00:27;;;;;;;28.67;18.83;;;20.30;99.90;;;20.72;57.26;101412.09;5008413;27;97352;-54
2021/08/17 05:02:54;;;;;;;34.47;20.57;;;20.30;99.90;;;20.68;57.51;101411.41;4999991;27;98734;-52
2021/08/17 05:05:20;;;;;;;31.53;19.53;;;20.20;99.90;;;20.70;57.31;101414.00;5026857;27;97340;-51
2021/08/17 05:07:47;;;;;;;28.63;18.40;;;20.20;99.90;;;20.77;57.43;101420.66;5005897;27;98725;-52
2021/08/17 05:10:19;;;;;;;31.43;19.53;;;20.30;99.90;;;20.72;55.94;101422.81;5010669;27;102442;-53
2021/08/17 05:12:45;;;;;;;29.00;17.97;;;20.30;99.90;;;20.73;57.44;101419.16;4988950;27;97251;-51
2021/08/17 05:15:12;;;;;;;33.50;19.20;;;20.20;99.90;;;20.76;57.39;101432.34;5013057;27;97357;-56
2021/08/17 05:17:38;;;;;;;28.20;18.67;;;20.30;99.90;;;20.72;56.42;101428.16;5026282;27;97186;-60
2021/08/17 05:20:07;;;;;;;30.57;18.97;;;20.30;99.90;;;20.76;57.22;101429.69;5012749;27;97068;-56
2021/08/17 05:22:33;;;;;;;30.07;18.93;;;20.30;99.90;;;20.81;57.12;101430.22;5014219;28;101052;-55
2021/08/17 05:24:59;;;;;;;27.13;17.57;;;20.40;99.90;;;20.82;56.16;101439.97;5010230;27;97088;-52
2021/08/17 05:27:25;;;;;;;33.07;18.93;;;20.40;99.90;;;20.79;53.72;101429.47;5013668;27;96919;-56
2021/08/17 05:29:52;;;;;;;33.40;19.87;;;20.50;99.90;;;20.77;56.79;101424.22;5026989;27;96875;-52
2021/08/17 05:32:19;;;;;;;25.80;16.87;;;20.40;99.90;;;20.82;57.04;101423.03;4977512;27;98403;-55
2021/08/17 05:34:46;;;;;;;29.70;18.57;;;20.40;99.90;;;20.81;56.63;101424.84;5002667;27;99727;-52
2021/08/17 05:37:16;;;;;;;28.63;18.00;;;20.40;99.90;;;20.74;54.00;101426.25;5013854;27;96732;-55
2021/08/17 05:39:42;;;;;;;23.70;15.97;;;20.40;99.90;;;20.79;56.85;101424.09;5004940;27;97219;-55
2021/08/17 05:42:10;;;;;;;30.57;18.87;;;20.40;99.90;;;20.79;55.73;101429.47;5026713;27;97383;-51
2021/08/17 05:44:38;;;;;;;32.93;19.30;;;20.40;99.90;;;20.81;54.75;101438.25;5007581;27;97538;-52
2021/08/17 05:47:04;;;;;;;33.30;18.70;;;20.50;99.90;;;20.82;53.93;101442.66;5003915;27;102173;-54
2021/08/17 05:49:30;;;;;;;34.67;19.60;;;20.50;99.90;;;20.82;55.99;101450.72;5013287;27;98358;-54
2021/08/17 05:51:56;;;;;;;36.03;20.17;;;20.50;99.90;;;20.79;56.51;101451.78;5006183;27;97274;-55
2021/08/17 05:54:23;;;;;;;32.60;19.43;;;20.40;99.90;;;20.77;56.85;101448.34;5012679;27;98108;-50
2021/08/17 05:56:50;;;;;;;30.20;18.77;;;20.40;99.90;;;20.76;56.91;101449.31;5003211;27;98189;-53
2021/08/17 05:59:16;;;;;;;33.27;19.30;;;20.40;99.90;;;20.76;56.42;101440.41;5010944;27;97626;-56
2021/08/17 06:01:42;;;;;;;33.87;20.20;;;20.30;99.90;;;20.78;56.94;101454.56;5004379;27;97182;-56
2021/08/17 06:04:08;;;;;;;30.77;19.37;;;20.40;99.90;;;20.78;56.86;101457.25;5009987;27;105611;-56
2021/08/17 06:06:34;;;;;;;26.73;17.33;;;20.30;99.90;;;20.79;57.00;101443.72;5007085;27;97565;-50
2021/08/17 06:09:00;;;;;;;29.40;18.70;;;20.40;99.90;;;20.82;56.96;101450.72;4987325;27;97430;-57
2021/08/17 06:11:25;;;;;;;34.10;20.33;;;20.40;99.90;;;20.84;56.65;101454.16;4974726;27;98691;-56
2021/08/17 06:13:53;;;;;;;31.60;18.73;;;20.40;99.90;;;20.86;56.86;101454.94;4972864;27;119674;-54
2021/08/17 06:16:19;;;;;;;30.93;18.73;;;20.40;99.90;;;20.87;56.66;101447.75;4993882;27;97978;-54
2021/08/17 06:18:45;;;;;;;33.27;20.17;;;20.50;99.90;;;20.87;56.65;101448.59;4990472;27;97402;-55
2021/08/17 06:21:10;;;;;;;31.17;19.37;;;20.50;99.90;;;20.90;56.88;101443.03;4990604;27;97632;-54
2021/08/17 06:23:36;;;;;;;31.57;20.07;;;20.50;99.90;;;20.89;53.76;101435.94;5008580;27;99276;-54
2021/08/17 06:26:02;;;;;;;32.60;20.40;;;20.60;99.90;;;20.94;56.86;101435.63;4981562;27;103589;-51
2021/08/17 06:28:28;;;;;;;33.23;19.87;;;20.50;99.90;;;20.95;56.70;101440.88;4979193;27;98840;-56
2021/08/17 06:30:54;;;;;;;35.07;20.37;;;20.60;99.90;;;20.92;54.49;101441.09;5008888;27;99389;-54
2021/08/17 06:33:20;;;;;;;18.60;12.87;;;20.60;99.90;;;20.99;56.77;101442.44;5008623;27;97889;-52
2021/08/17 06:35:46;;;;;;;34.07;20.37;;;20.60;99.90;;;21.00;55.86;101441.47;4990693;27;98744;-56
2021/08/17 06:38:12;;;;;;;34.43;20.67;;;20.70;99.90;;;21.08;56.49;101455.19;5010262;27;98637;-56
2021/08/17 06:40:38;;;;;;;36.63;21.13;;;20.80;99.90;;;21.10;56.36;101452.41;4992132;27;99739;-61
2021/08/17 06:43:04;;;;;;;36.70;21.27;;;20.80;99.90;;;21.09;55.55;101448.88;5008758;27;101856;-52
2021/08/17 06:45:29;;;;;;;35.23;21.00;;;20.80;99.90;;;21.06;56.36;101440.19;5011614;27;100110;-54
2021/08/17 06:47:57;;;;;;;31.87;20.17;;;20.70;99.90;;;21.08;56.57;101436.41;5009368;27;98942;-54
2021/08/17 06:50:23;;;;;;;36.10;20.93;;;20.70;99.90;;;21.10;55.85;101436.31;4993646;27;98127;-55
2021/08/17 06:52:49;;;;;;;28.90;18.43;;;20.80;99.90;;;21.14;55.47;101418.22;5007079;27;98699;-56
2021/08/17 06:55:15;;;;;;;31.53;19.13;;;20.80;99.90;;;21.04;55.49;101426.88;5012506;27;97083;-55
2021/08/17 06:57:41;;;;;;;27.50;17.33;;;20.70;99.90;;;21.13;56.23;101421.88;5007512;27;97838;-56
2021/08/17 07:00:10;;;;;;;33.93;20.73;;;20.80;99.90;;;21.18;56.27;101425.09;4993059;27;98274;-56
2021/08/17 07:02:36;;;;;;;33.77;19.77;;;20.90;99.90;;;21.06;54.67;101435.66;4996755;27;100810;-55
2021/08/17 07:05:04;;;;;;;32.03;19.77;;;20.80;99.90;;;21.02;55.91;101430.63;5007167;27;97981;-56
2021/08/17 07:07:30;;;;;;;31.87;20.43;;;20.70;99.90;;;21.09;56.18;101430.09;4995407;27;97582;-53
2021/08/17 07:09:55;;;;;;;32.73;19.70;;;20.80;99.90;;;21.09;56.37;101432.78;4985132;27;99439;-56
2021/08/17 07:12:21;;;;;;;38.70;22.07;;;20.80;99.90;;;21.02;55.68;101442.22;5011632;27;99803;-56
2021/08/17 07:14:47;;;;;;;31.83;19.10;;;20.70;99.90;;;20.95;54.87;101440.88;4991871;27;97426;-54
2021/08/17 07:17:13;;;;;;;35.73;20.57;;;20.70;99.90;;;21.02;56.44;101447.56;4973028;27;97963;-49
2021/08/17 07:19:38;;;;;;;37.80;22.13;;;20.70;99.90;;;21.00;56.15;101443.28;4982177;27;97060;-59
2021/08/17 07:22:04;;;;;;;29.00;19.10;;;20.70;99.90;;;21.04;56.39;101448.34;5007163;27;109603;-54
2021/08/17 07:24:30;;;;;;;35.33;20.03;;;20.70;99.90;;;21.02;56.31;101449.41;5011985;27;99551;-56
2021/08/17 07:26:56;;;;;;;34.87;21.23;;;20.70;99.90;;;21.02;55.95;101431.47;4985425;27;97980;-54
2021/08/17 07:29:22;;;;;;;33.23;20.33;;;20.80;99.90;;;20.99;55.52;101426.34;4993526;27;98486;-50
2021/08/17 07:31:49;;;;;;;31.23;18.63;;;20.80;99.90;;;21.05;55.81;101431.28;5003335;27;99447;-55
2021/08/17 07:34:15;;;;;;;34.97;21.30;;;20.80;99.90;;;21.05;56.25;101436.63;4984170;27;97240;-54
2021/08/17 07:36:41;;;;;;;33.40;20.77;;;20.80;99.90;;;21.06;55.90;101427.63;4982898;27;99379;-55
2021/08/17 07:39:09;;;;;;;35.80;20.73;;;20.80;99.90;;;21.06;55.51;101433.00;4990398;27;97317;-54
2021/08/17 07:41:36;;;;;;;29.67;19.23;;;20.90;99.90;;;21.05;56.42;101431.28;4991006;27;99727;-60
2021/08/17 07:44:03;;;;;;;34.07;20.03;;;20.80;99.90;;;21.05;56.18;101436.63;4985582;27;98060;-58
2021/08/17 07:46:29;;;;;;;30.40;19.40;;;20.80;99.90;;;21.08;56.68;101444.47;4974071;27;99264;-56
2021/08/17 07:48:55;;;;;;;31.43;20.87;;;20.80;99.90;;;21.08;56.48;101452.50;4997100;27;97432;-58
2021/08/17 07:51:22;;;;;;;27.30;16.07;;;20.80;99.90;;;21.05;55.53;101446.50;4986241;28;101089;-60
2021/08/17 07:53:48;;;;;;;30.60;19.30;;;20.90;99.90;;;21.03;55.81;101443.06;4984734;27;100494;-59
2021/08/17 07:56:14;;;;;;;26.43;16.73;;;20.80;99.90;;;21.08;56.71;101436.41;4988581;27;97966;-58
2021/08/17 07:58:40;;;;;;;33.73;19.57;;;20.90;99.90;;;21.15;56.15;101441.41;4981770;27;98830;-58
2021/08/17 08:01:06;;;;;;;29.20;18.80;;;20.90;99.90;;;21.19;55.96;101448.25;4981997;27;100513;-56
2021/08/17 08:03:34;;;;;;;31.90;19.20;;;21.00;99.90;;;21.26;56.19;101444.22;4983982;27;97997;-54
2021/08/17 08:06:00;;;;;;;27.33;17.90;;;21.10;99.90;;;21.24;56.14;101446.13;4981938;27;98881;-55
2021/08/17 08:08:26;;;;;;;33.87;19.47;;;21.00;99.90;;;21.30;55.83;101451.13;5004128;27;98384;-56
2021/08/17 08:10:52;;;;;;;29.60;17.93;;;21.10;99.90;;;21.30;54.39;101451.97;4981316;27;99038;-57
2021/08/17 08:13:18;;;;;;;29.43;19.07;;;21.10;99.90;;;21.26;54.65;101454.94;4986650;27;98552;-56
2021/08/17 08:15:44;;;;;;;33.23;19.33;;;21.00;99.90;;;21.28;55.71;101461.09;4982950;27;98210;-56
2021/08/17 08:18:10;;;;;;;34.13;19.90;;;21.00;99.90;;;21.31;56.16;101464.44;4988831;27;99038;-57
2021/08/17 08:20:36;;;;;;;31.23;18.53;;;21.00;99.90;;;21.22;54.04;101467.69;4975347;27;98771;-57
2021/08/17 08:23:05;;;;;;;31.83;19.53;;;21.00;99.90;;;21.18;54.40;101468.88;4990449;27;98510;-57
2021/08/17 08:25:31;;;;;;;26.90;17.10;;;21.00;99.90;;;21.14;56.00;101450.41;4989779;27;98732;-59
2021/08/17 08:27:57;;;;;;;29.47;18.90;;;20.90;99.90;;;20.81;54.67;101443.63;4986979;27;98902;-46
2021/08/17 08:30:23;;;;;;;33.63;19.93;;;20.70;99.90;;;19.97;57.24;101429.44;4988496;27;98339;-51
2021/08/17 08:32:49;;;;;;;32.33;19.73;;;19.70;99.90;;;19.49;58.86;101418.06;5000981;27;98065;-54
2021/08/17 08:35:14;;;;;;;42.83;20.87;;;19.10;99.90;;;19.30;59.93;101419.19;5007015;27;98340;-54
2021/08/17 08:37:40;;;;;;;33.10;19.60;;;19.00;99.90;;;19.20;60.96;101409.13;5002252;27;97727;-51
2021/08/17 08:40:10;;;;;;;34.10;20.13;;;18.90;99.90;;;19.03;60.94;101410.13;4986110;27;99241;-52
2021/08/17 08:42:36;;;;;;;29.50;18.43;;;18.70;99.90;;;19.47;61.13;101409.28;4986205;27;98655;-52
2021/08/17 08:45:03;;;;;;;35.37;18.30;;;19.10;99.90;;;19.81;60.21;101398.22;4986871;27;97278;-53
2021/08/17 08:47:35;;;;;;;29.87;18.03;;;19.50;99.90;;;20.04;59.78;101414.69;4986161;27;98738;-51
2021/08/17 08:50:02;;;;;;;30.00;17.80;;;19.80;99.90;;;20.31;59.12;101404.03;4986621;27;98203;-50
2021/08/17 08:52:27;;;;;;;27.23;17.33;;;20.10;99.90;;;20.50;58.25;101402.75;4989334;27;99288;-51
2021/08/17 08:54:54;;;;;;;30.43;18.17;;;20.40;99.90;;;20.67;57.61;101416.88;4997508;27;98123;-54
2021/08/17 08:57:20;;;;;;;25.17;15.33;;;20.50;99.90;;;20.72;56.75;101412.94;4991605;27;98278;-49
2021/08/17 08:59:46;;;;;;;24.07;15.80;;;20.60;99.90;;;20.85;57.08;101421.03;4985429;27;97410;-53
2021/08/17 09:02:17;;;;;;;26.53;15.93;;;20.70;99.90;;;20.83;55.68;101422.06;4995440;27;99086;-55
2021/08/17 09:04:52;;;;;;;23.83;14.83;;;20.70;99.90;;;20.94;55.40;101427.59;5002638;27;100344;-54
2021/08/17 09:07:46;;;;;;;21.77;15.10;;;20.80;99.90;;;21.01;56.43;101427.09;4994755;27;99224;-52
2021/08/17 09:10:21;;;;;;;22.83;15.40;;;20.90;99.90;;;21.09;56.13;101440.81;4991215;27;100814;-52
2021/08/17 09:12:55;;;;;;;25.53;14.77;;;21.00;99.90;;;21.14;55.99;101445.03;4985297;27;102002;-54
2021/08/17 09:15:33;;;;;;;24.73;14.80;;;21.00;99.90;;;21.21;55.76;101441.81;4988805;27;99367;-54
2021/08/17 09:18:11;;;;;;;25.27;15.23;;;21.10;99.90;;;21.14;55.25;101439.69;4989383;27;98293;-50
2021/08/17 09:20:43;;;;;;;22.93;14.30;;;21.00;99.90;;;21.02;54.54;101452.94;5010444;27;100701;-52
2021/08/17 09:23:28;;;;;;;23.13;14.57;;;21.00;99.90;;;21.06;55.72;101443.72;4983428;27;100007;-51
2021/08/17 09:26:24;;;;;;;21.13;14.37;;;21.00;99.90;;;21.17;55.70;101444.81;4989236;27;98319;-52
2021/08/17 09:29:00;;;;;;;24.63;14.27;;;21.00;99.90;;;21.10;53.78;101445.22;4986438;27;98440;-55
2021/08/17 09:31:40;;;;;;;22.67;13.80;;;21.00;99.90;;;21.09;54.81;101443.50;5011209;27;97522;-55
2021/08/17 09:34:10;;;;;;;23.43;14.97;;;21.00;99.90;;;20.97;54.26;101438.09;4987048;27;101333;-54
2021/08/17 09:36:41;;;;;;;25.03;14.43;;;20.90;99.90;;;20.93;54.35;101440.13;5011045;27;97213;-55
2021/08/17 09:39:08;;;;;;;23.80;15.20;;;20.90;99.90;;;20.88;54.48;101423.50;5008098;27;98977;-52
2021/08/17 09:41:34;;;;;;;26.40;15.73;;;20.90;99.90;;;20.89;53.94;101424.34;5010414;27;97627;-51
2021/08/17 09:44:07;;;;;;;24.13;14.87;;;20.80;99.90;;;21.04;54.79;101418.81;5011189;27;97532;-52
2021/08/17 09:46:39;;;;;;;23.53;14.50;;;20.90;99.90;;;21.17;55.66;101418.00;5010737;27;97527;-55
2021/08/17 09:49:27;;;;;;;22.17;13.90;;;21.00;99.90;;;21.22;55.35;101426.59;5009325;27;98520;-52
2021/08/17 09:51:54;;;;;;;20.77;14.03;;;21.10;99.90;;;21.26;54.84;101406.66;4991664;27;99217;-55
2021/08/17 09:54:23;;;;;;;21.80;14.53;;;21.10;99.90;;;21.12;54.40;101414.75;5007633;27;98014;-52
2021/08/17 09:57:04;;;;;;;24.20;15.57;;;21.10;99.90;;;21.28;55.24;101427.06;4999227;27;98935;-55
2021/08/17 09:59:33;;;;;;;21.20;14.53;;;21.10;99.90;;;21.21;53.89;101427.56;4994341;27;99386;-48
2021/08/17 10:02:00;;;;;;;26.43;16.63;;;21.10;99.90;;;21.29;54.60;101434.16;4987741;27;98381;-54